KABR/ABR METAR and TAF weather

Enter ICAO airport designator
Station Type Date Time Source
KABR METAR 2018/10/16 20:53 UTC NOAA

KABR 162053Z AUTO 32022G31KT 10SM CLR 14/M02 A3015 RMK AO2 PK WND 31033/2020 SLP213 T01391022 53001


Station Type Date Time Source
KABR Decoded METAR 2018/10/16 20:53 UTC NOAA

ABERDEEN REGIONAL AIRPORT, SD, United States (KABR) 45-27N 098-25W 400M
Oct 16, 2018 - 04:53 PM EDT / 2018.10.16 2053 UTC
Wind: from the NW (320 degrees) at 25 MPH (22 KT) gusting to 36 MPH (31 KT):0
Visibility: 10 mile(s):0
Sky conditions: clear
Temperature: 57.0 F (13.9 C)
Dew Point: 28.0 F (-2.2 C)
Relative Humidity: 32%
Pressure (altimeter): 30.15 in. Hg (1020 hPa)
Pressure tendency: 0.00 inches (0.1 hPa) higher than three hours ago
ob: KABR 162053Z AUTO 32022G31KT 10SM CLR 14/M02 A3015 RMK AO2 PK WND 31033/2020 SLP213 T01391022 53001
cycle: 21

Station Type Date Time Source
KABR TAF 2018/10/16 21:06 UTC NOAA

TAF
AMD KABR 162103Z 1621/1718 33020G30KT P6SM BKN100
FM170300 32005KT P6SM FEW250
FM171200 VRB04KT P6SM FEW060


Example: see airport list